sensor_id;sensor_type;location;lat;lon;timestamp;P1;durP1;ratioP1;P2;durP2;ratioP2
26113;SDS011;13966;48.828;9.064;2023-07-29T00:01:23;1.90;;;1.60;;
26113;SDS011;13966;48.828;9.064;2023-07-29T00:03:49;2.03;;;1.40;;
26113;SDS011;13966;48.828;9.064;2023-07-29T00:06:15;4.28;;;1.65;;
26113;SDS011;13966;48.828;9.064;2023-07-29T00:08:41;4.45;;;1.30;;
26113;SDS011;13966;48.828;9.064;2023-07-29T00:11:07;5.65;;;1.88;;
26113;SDS011;13966;48.828;9.064;2023-07-29T00:13:33;3.47;;;1.73;;
26113;SDS011;13966;48.828;9.064;2023-07-29T00:15:59;2.83;;;1.50;;
26113;SDS011;13966;48.828;9.064;2023-07-29T00:18:25;1.58;;;1.35;;
26113;SDS011;13966;48.828;9.064;2023-07-29T00:20:52;2.50;;;1.30;;
26113;SDS011;13966;48.828;9.064;2023-07-29T00:23:18;4.57;;;1.30;;
26113;SDS011;13966;48.828;9.064;2023-07-29T00:25:45;2.78;;;1.70;;
26113;SDS011;13966;48.828;9.064;2023-07-29T00:28:11;3.03;;;1.63;;
26113;SDS011;13966;48.828;9.064;2023-07-29T00:30:37;2.67;;;1.75;;
26113;SDS011;13966;48.828;9.064;2023-07-29T00:33:03;3.85;;;1.52;;
26113;SDS011;13966;48.828;9.064;2023-07-29T00:35:29;2.03;;;1.70;;
26113;SDS011;13966;48.828;9.064;2023-07-29T00:37:55;3.28;;;1.40;;
26113;SDS011;13966;48.828;9.064;2023-07-29T00:40:22;2.92;;;1.48;;
26113;SDS011;13966;48.828;9.064;2023-07-29T00:42:48;1.27;;;1.13;;
26113;SDS011;13966;48.828;9.064;2023-07-29T00:45:15;5.22;;;1.35;;
26113;SDS011;13966;48.828;9.064;2023-07-29T00:47:41;1.60;;;1.40;;
26113;SDS011;13966;48.828;9.064;2023-07-29T00:50:09;2.45;;;1.50;;
26113;SDS011;13966;48.828;9.064;2023-07-29T00:52:35;3.45;;;2.33;;
26113;SDS011;13966;48.828;9.064;2023-07-29T00:55:01;3.53;;;1.60;;
26113;SDS011;13966;48.828;9.064;2023-07-29T00:57:27;3.70;;;1.70;;
26113;SDS011;13966;48.828;9.064;2023-07-29T00:59:54;4.60;;;1.77;;
26113;SDS011;13966;48.828;9.064;2023-07-29T01:02:21;2.20;;;1.33;;
26113;SDS011;13966;48.828;9.064;2023-07-29T01:04:53;2.80;;;1.40;;
26113;SDS011;13966;48.828;9.064;2023-07-29T01:12:28;1.73;;;1.40;;
26113;SDS011;13966;48.828;9.064;2023-07-29T01:17:52;2.42;;;1.40;;
26113;SDS011;13966;48.828;9.064;2023-07-29T01:20:15;1.88;;;1.35;;
26113;SDS011;13966;48.828;9.064;2023-07-29T01:22:42;1.20;;;1.10;;
26113;SDS011;13966;48.828;9.064;2023-07-29T01:25:08;2.75;;;1.50;;
26113;SDS011;13966;48.828;9.064;2023-07-29T01:27:34;3.95;;;1.60;;
26113;SDS011;13966;48.828;9.064;2023-07-29T01:30:00;2.08;;;1.42;;
26113;SDS011;13966;48.828;9.064;2023-07-29T01:32:29;2.08;;;1.40;;
26113;SDS011;13966;48.828;9.064;2023-07-29T01:35:14;4.97;;;1.60;;
26113;SDS011;13966;48.828;9.064;2023-07-29T01:37:41;2.03;;;1.40;;
26113;SDS011;13966;48.828;9.064;2023-07-29T01:40:08;1.75;;;1.13;;
26113;SDS011;13966;48.828;9.064;2023-07-29T01:42:34;3.28;;;1.85;;
26113;SDS011;13966;48.828;9.064;2023-07-29T01:45:00;3.03;;;1.60;;
26113;SDS011;13966;48.828;9.064;2023-07-29T01:47:27;4.20;;;1.77;;
26113;SDS011;13966;48.828;9.064;2023-07-29T01:49:53;3.72;;;1.70;;
26113;SDS011;13966;48.828;9.064;2023-07-29T01:52:19;2.97;;;1.70;;
26113;SDS011;13966;48.828;9.064;2023-07-29T01:54:45;3.75;;;1.30;;
26113;SDS011;13966;48.828;9.064;2023-07-29T01:57:11;2.88;;;1.42;;
26113;SDS011;13966;48.828;9.064;2023-07-29T01:59:37;1.90;;;1.50;;
26113;SDS011;13966;48.828;9.064;2023-07-29T02:02:03;2.80;;;1.58;;
26113;SDS011;13966;48.828;9.064;2023-07-29T02:04:29;3.97;;;1.60;;
26113;SDS011;13966;48.828;9.064;2023-07-29T02:06:55;5.70;;;1.67;;
26113;SDS011;13966;48.828;9.064;2023-07-29T02:09:21;3.20;;;1.50;;
26113;SDS011;13966;48.828;9.064;2023-07-29T02:11:47;4.35;;;1.90;;
26113;SDS011;13966;48.828;9.064;2023-07-29T02:14:13;5.05;;;1.58;;
26113;SDS011;13966;48.828;9.064;2023-07-29T02:16:39;2.80;;;1.60;;
26113;SDS011;13966;48.828;9.064;2023-07-29T02:19:05;3.35;;;1.58;;
26113;SDS011;13966;48.828;9.064;2023-07-29T02:21:31;3.05;;;1.73;;
26113;SDS011;13966;48.828;9.064;2023-07-29T02:23:57;2.15;;;1.70;;
26113;SDS011;13966;48.828;9.064;2023-07-29T02:26:23;2.30;;;1.52;;
26113;SDS011;13966;48.828;9.064;2023-07-29T02:28:49;4.63;;;2.00;;
26113;SDS011;13966;48.828;9.064;2023-07-29T02:31:20;2.45;;;1.70;;
26113;SDS011;13966;48.828;9.064;2023-07-29T02:33:47;5.47;;;2.05;;
26113;SDS011;13966;48.828;9.064;2023-07-29T02:36:13;2.42;;;1.73;;
26113;SDS011;13966;48.828;9.064;2023-07-29T02:38:39;5.25;;;2.00;;
26113;SDS011;13966;48.828;9.064;2023-07-29T02:41:06;3.20;;;1.80;;
26113;SDS011;13966;48.828;9.064;2023-07-29T02:43:33;3.60;;;1.90;;
26113;SDS011;13966;48.828;9.064;2023-07-29T02:45:59;5.63;;;1.95;;
26113;SDS011;13966;48.828;9.064;2023-07-29T02:48:25;1.88;;;1.50;;
26113;SDS011;13966;48.828;9.064;2023-07-29T02:50:51;3.38;;;1.83;;
26113;SDS011;13966;48.828;9.064;2023-07-29T02:53:17;3.40;;;1.65;;
26113;SDS011;13966;48.828;9.064;2023-07-29T02:55:43;2.20;;;1.75;;
26113;SDS011;13966;48.828;9.064;2023-07-29T02:58:09;7.45;;;2.20;;
26113;SDS011;13966;48.828;9.064;2023-07-29T03:00:35;4.03;;;2.00;;
26113;SDS011;13966;48.828;9.064;2023-07-29T03:03:01;4.25;;;1.70;;
26113;SDS011;13966;48.828;9.064;2023-07-29T03:05:27;4.43;;;1.80;;
26113;SDS011;13966;48.828;9.064;2023-07-29T03:07:53;6.45;;;2.00;;
26113;SDS011;13966;48.828;9.064;2023-07-29T03:10:19;4.65;;;1.67;;
26113;SDS011;13966;48.828;9.064;2023-07-29T03:12:46;4.60;;;1.88;;
26113;SDS011;13966;48.828;9.064;2023-07-29T03:15:12;3.22;;;1.88;;
26113;SDS011;13966;48.828;9.064;2023-07-29T03:17:38;2.83;;;2.10;;
26113;SDS011;13966;48.828;9.064;2023-07-29T03:20:04;2.65;;;1.90;;
26113;SDS011;13966;48.828;9.064;2023-07-29T03:22:30;4.43;;;1.75;;
26113;SDS011;13966;48.828;9.064;2023-07-29T03:24:56;8.05;;;2.38;;
26113;SDS011;13966;48.828;9.064;2023-07-29T03:27:22;2.40;;;1.90;;
26113;SDS011;13966;48.828;9.064;2023-07-29T03:29:48;2.80;;;1.85;;
26113;SDS011;13966;48.828;9.064;2023-07-29T03:32:14;5.18;;;2.40;;
26113;SDS011;13966;48.828;9.064;2023-07-29T03:34:40;2.25;;;1.80;;
26113;SDS011;13966;48.828;9.064;2023-07-29T03:37:06;3.33;;;1.80;;
26113;SDS011;13966;48.828;9.064;2023-07-29T03:39:32;2.00;;;1.80;;
26113;SDS011;13966;48.828;9.064;2023-07-29T03:41:58;4.10;;;2.00;;
26113;SDS011;13966;48.828;9.064;2023-07-29T03:44:24;4.93;;;2.15;;
26113;SDS011;13966;48.828;9.064;2023-07-29T03:46:51;6.47;;;2.08;;
26113;SDS011;13966;48.828;9.064;2023-07-29T03:49:17;5.15;;;1.83;;
26113;SDS011;13966;48.828;9.064;2023-07-29T03:51:43;3.08;;;2.17;;
26113;SDS011;13966;48.828;9.064;2023-07-29T03:54:10;6.00;;;2.67;;
26113;SDS011;13966;48.828;9.064;2023-07-29T03:56:36;6.95;;;2.95;;
26113;SDS011;13966;48.828;9.064;2023-07-29T03:59:03;5.75;;;2.65;;
26113;SDS011;13966;48.828;9.064;2023-07-29T04:01:30;9.35;;;2.67;;
26113;SDS011;13966;48.828;9.064;2023-07-29T04:03:56;8.32;;;3.35;;
26113;SDS011;13966;48.828;9.064;2023-07-29T04:06:22;7.93;;;3.35;;
26113;SDS011;13966;48.828;9.064;2023-07-29T04:08:48;5.10;;;3.20;;
26113;SDS011;13966;48.828;9.064;2023-07-29T04:11:14;6.20;;;3.28;;
26113;SDS011;13966;48.828;9.064;2023-07-29T04:13:40;6.03;;;3.53;;
26113;SDS011;13966;48.828;9.064;2023-07-29T04:16:06;5.32;;;3.60;;
26113;SDS011;13966;48.828;9.064;2023-07-29T04:18:32;7.22;;;3.95;;
26113;SDS011;13966;48.828;9.064;2023-07-29T04:20:58;6.63;;;3.60;;
26113;SDS011;13966;48.828;9.064;2023-07-29T04:23:24;8.63;;;3.50;;
26113;SDS011;13966;48.828;9.064;2023-07-29T04:25:50;5.25;;;3.53;;
26113;SDS011;13966;48.828;9.064;2023-07-29T04:28:16;6.35;;;3.60;;
26113;SDS011;13966;48.828;9.064;2023-07-29T04:30:42;9.63;;;3.50;;
26113;SDS011;13966;48.828;9.064;2023-07-29T04:33:08;8.18;;;3.92;;
26113;SDS011;13966;48.828;9.064;2023-07-29T04:35:34;8.48;;;4.13;;
26113;SDS011;13966;48.828;9.064;2023-07-29T04:38:00;8.15;;;3.67;;
26113;SDS011;13966;48.828;9.064;2023-07-29T04:40:26;7.05;;;3.97;;
26113;SDS011;13966;48.828;9.064;2023-07-29T04:42:52;9.85;;;4.55;;
26113;SDS011;13966;48.828;9.064;2023-07-29T04:45:18;7.10;;;4.22;;
26113;SDS011;13966;48.828;9.064;2023-07-29T04:47:45;10.25;;;4.55;;
26113;SDS011;13966;48.828;9.064;2023-07-29T04:50:11;9.82;;;5.10;;
26113;SDS011;13966;48.828;9.064;2023-07-29T04:52:37;10.65;;;4.65;;
26113;SDS011;13966;48.828;9.064;2023-07-29T04:55:03;8.93;;;4.72;;
26113;SDS011;13966;48.828;9.064;2023-07-29T04:57:29;11.15;;;5.15;;
26113;SDS011;13966;48.828;9.064;2023-07-29T04:59:55;8.63;;;4.60;;
26113;SDS011;13966;48.828;9.064;2023-07-29T05:02:21;10.85;;;4.63;;
26113;SDS011;13966;48.828;9.064;2023-07-29T05:04:47;8.30;;;4.68;;
26113;SDS011;13966;48.828;9.064;2023-07-29T05:07:13;8.52;;;4.90;;
26113;SDS011;13966;48.828;9.064;2023-07-29T05:09:39;10.60;;;4.75;;
26113;SDS011;13966;48.828;9.064;2023-07-29T05:12:05;9.95;;;4.85;;
26113;SDS011;13966;48.828;9.064;2023-07-29T05:14:31;10.05;;;5.03;;
26113;SDS011;13966;48.828;9.064;2023-07-29T05:16:57;7.00;;;4.15;;
26113;SDS011;13966;48.828;9.064;2023-07-29T05:19:23;8.73;;;4.45;;
26113;SDS011;13966;48.828;9.064;2023-07-29T05:21:49;11.13;;;4.20;;
26113;SDS011;13966;48.828;9.064;2023-07-29T05:24:15;9.93;;;4.47;;
26113;SDS011;13966;48.828;9.064;2023-07-29T05:26:41;5.95;;;4.45;;
26113;SDS011;13966;48.828;9.064;2023-07-29T05:29:07;8.35;;;4.03;;
26113;SDS011;13966;48.828;9.064;2023-07-29T05:31:33;6.05;;;3.90;;
26113;SDS011;13966;48.828;9.064;2023-07-29T05:33:59;7.00;;;4.10;;
26113;SDS011;13966;48.828;9.064;2023-07-29T05:36:25;8.63;;;3.92;;
26113;SDS011;13966;48.828;9.064;2023-07-29T05:38:51;4.93;;;3.58;;
26113;SDS011;13966;48.828;9.064;2023-07-29T05:41:17;4.78;;;3.83;;
26113;SDS011;13966;48.828;9.064;2023-07-29T05:43:43;7.85;;;3.40;;
26113;SDS011;13966;48.828;9.064;2023-07-29T05:46:10;5.75;;;2.85;;
26113;SDS011;13966;48.828;9.064;2023-07-29T05:48:36;9.88;;;2.40;;
26113;SDS011;13966;48.828;9.064;2023-07-29T05:51:02;3.70;;;2.30;;
26113;SDS011;13966;48.828;9.064;2023-07-29T05:53:30;4.57;;;2.42;;
26113;SDS011;13966;48.828;9.064;2023-07-29T05:55:56;4.13;;;2.03;;
26113;SDS011;13966;48.828;9.064;2023-07-29T05:58:22;4.50;;;2.40;;
26113;SDS011;13966;48.828;9.064;2023-07-29T06:00:48;2.60;;;2.15;;
26113;SDS011;13966;48.828;9.064;2023-07-29T06:03:14;4.45;;;2.00;;
26113;SDS011;13966;48.828;9.064;2023-07-29T06:05:41;5.13;;;1.90;;
26113;SDS011;13966;48.828;9.064;2023-07-29T06:08:07;4.22;;;1.90;;
26113;SDS011;13966;48.828;9.064;2023-07-29T06:10:33;4.03;;;1.70;;
26113;SDS011;13966;48.828;9.064;2023-07-29T06:13:00;6.28;;;1.90;;
26113;SDS011;13966;48.828;9.064;2023-07-29T06:15:26;3.22;;;1.60;;
26113;SDS011;13966;48.828;9.064;2023-07-29T06:17:52;3.90;;;1.60;;
26113;SDS011;13966;48.828;9.064;2023-07-29T06:20:18;4.03;;;1.67;;
26113;SDS011;13966;48.828;9.064;2023-07-29T06:22:43;2.58;;;1.30;;
26113;SDS011;13966;48.828;9.064;2023-07-29T06:25:09;2.70;;;1.40;;
26113;SDS011;13966;48.828;9.064;2023-07-29T06:27:35;3.15;;;1.70;;
26113;SDS011;13966;48.828;9.064;2023-07-29T06:30:02;3.22;;;1.50;;
26113;SDS011;13966;48.828;9.064;2023-07-29T06:32:28;1.90;;;1.67;;
26113;SDS011;13966;48.828;9.064;2023-07-29T06:34:53;3.00;;;1.60;;
26113;SDS011;13966;48.828;9.064;2023-07-29T06:37:20;3.50;;;1.75;;
26113;SDS011;13966;48.828;9.064;2023-07-29T06:39:46;2.17;;;1.77;;
26113;SDS011;13966;48.828;9.064;2023-07-29T06:42:12;1.70;;;1.48;;
26113;SDS011;13966;48.828;9.064;2023-07-29T06:44:39;3.80;;;1.65;;
26113;SDS011;13966;48.828;9.064;2023-07-29T06:47:05;5.65;;;1.85;;
26113;SDS011;13966;48.828;9.064;2023-07-29T06:49:32;2.90;;;1.77;;
26113;SDS011;13966;48.828;9.064;2023-07-29T06:51:57;1.90;;;1.60;;
26113;SDS011;13966;48.828;9.064;2023-07-29T06:54:24;5.40;;;2.00;;
26113;SDS011;13966;48.828;9.064;2023-07-29T06:56:51;4.95;;;1.60;;
26113;SDS011;13966;48.828;9.064;2023-07-29T06:59:17;3.50;;;1.65;;
26113;SDS011;13966;48.828;9.064;2023-07-29T07:01:43;4.65;;;1.45;;
26113;SDS011;13966;48.828;9.064;2023-07-29T07:04:09;3.55;;;1.23;;
26113;SDS011;13966;48.828;9.064;2023-07-29T07:06:35;5.35;;;1.42;;
26113;SDS011;13966;48.828;9.064;2023-07-29T07:09:01;8.23;;;1.63;;
26113;SDS011;13966;48.828;9.064;2023-07-29T07:11:27;1.88;;;1.58;;
26113;SDS011;13966;48.828;9.064;2023-07-29T07:13:53;3.97;;;1.95;;
26113;SDS011;13966;48.828;9.064;2023-07-29T07:16:19;5.07;;;1.90;;
26113;SDS011;13966;48.828;9.064;2023-07-29T07:18:45;3.08;;;1.90;;
26113;SDS011;13966;48.828;9.064;2023-07-29T07:21:11;3.63;;;1.80;;
26113;SDS011;13966;48.828;9.064;2023-07-29T07:23:38;3.42;;;1.88;;
26113;SDS011;13966;48.828;9.064;2023-07-29T07:26:04;4.47;;;2.15;;
26113;SDS011;13966;48.828;9.064;2023-07-29T07:28:30;2.05;;;1.67;;
26113;SDS011;13966;48.828;9.064;2023-07-29T07:30:56;3.63;;;1.73;;
26113;SDS011;13966;48.828;9.064;2023-07-29T07:33:22;2.90;;;1.70;;
26113;SDS011;13966;48.828;9.064;2023-07-29T07:35:48;2.40;;;1.80;;
26113;SDS011;13966;48.828;9.064;2023-07-29T07:38:14;2.42;;;2.00;;
26113;SDS011;13966;48.828;9.064;2023-07-29T07:40:40;3.42;;;1.70;;
26113;SDS011;13966;48.828;9.064;2023-07-29T07:43:06;2.47;;;1.90;;
26113;SDS011;13966;48.828;9.064;2023-07-29T07:45:32;2.40;;;1.75;;
26113;SDS011;13966;48.828;9.064;2023-07-29T07:47:58;3.03;;;1.90;;
26113;SDS011;13966;48.828;9.064;2023-07-29T07:50:24;2.28;;;1.50;;
26113;SDS011;13966;48.828;9.064;2023-07-29T07:52:50;1.88;;;1.58;;
26113;SDS011;13966;48.828;9.064;2023-07-29T07:55:16;2.13;;;1.42;;
26113;SDS011;13966;48.828;9.064;2023-07-29T07:57:42;2.35;;;1.50;;
26113;SDS011;13966;48.828;9.064;2023-07-29T08:00:08;1.70;;;1.20;;
26113;SDS011;13966;48.828;9.064;2023-07-29T08:02:34;5.90;;;1.70;;
26113;SDS011;13966;48.828;9.064;2023-07-29T08:05:01;1.85;;;1.30;;
26113;SDS011;13966;48.828;9.064;2023-07-29T08:07:27;2.35;;;1.08;;
26113;SDS011;13966;48.828;9.064;2023-07-29T08:09:52;2.75;;;1.15;;
26113;SDS011;13966;48.828;9.064;2023-07-29T08:12:19;1.63;;;1.15;;
26113;SDS011;13966;48.828;9.064;2023-07-29T08:14:45;2.15;;;1.10;;
26113;SDS011;13966;48.828;9.064;2023-07-29T08:17:11;2.10;;;1.10;;
26113;SDS011;13966;48.828;9.064;2023-07-29T08:19:36;1.23;;;0.80;;
26113;SDS011;13966;48.828;9.064;2023-07-29T08:22:02;2.60;;;1.00;;
26113;SDS011;13966;48.828;9.064;2023-07-29T08:24:29;2.42;;;0.80;;
26113;SDS011;13966;48.828;9.064;2023-07-29T08:26:55;2.85;;;1.00;;
26113;SDS011;13966;48.828;9.064;2023-07-29T08:29:21;1.48;;;0.93;;
26113;SDS011;13966;48.828;9.064;2023-07-29T08:31:47;0.60;;;0.60;;
26113;SDS011;13966;48.828;9.064;2023-07-29T08:34:13;1.42;;;1.00;;
26113;SDS011;13966;48.828;9.064;2023-07-29T08:36:39;3.63;;;0.93;;
26113;SDS011;13966;48.828;9.064;2023-07-29T08:39:05;1.13;;;0.82;;
26113;SDS011;13966;48.828;9.064;2023-07-29T08:41:39;1.52;;;1.00;;
26113;SDS011;13966;48.828;9.064;2023-07-29T08:44:09;1.88;;;0.95;;
26113;SDS011;13966;48.828;9.064;2023-07-29T08:46:37;2.30;;;0.80;;
26113;SDS011;13966;48.828;9.064;2023-07-29T08:49:03;1.08;;;0.98;;
26113;SDS011;13966;48.828;9.064;2023-07-29T08:51:29;1.25;;;0.90;;
26113;SDS011;13966;48.828;9.064;2023-07-29T08:53:57;1.70;;;1.08;;
26113;SDS011;13966;48.828;9.064;2023-07-29T08:56:24;1.52;;;0.82;;
26113;SDS011;13966;48.828;9.064;2023-07-29T08:58:50;1.25;;;0.93;;
26113;SDS011;13966;48.828;9.064;2023-07-29T09:01:17;1.25;;;0.77;;
26113;SDS011;13966;48.828;9.064;2023-07-29T09:03:43;1.63;;;1.20;;
26113;SDS011;13966;48.828;9.064;2023-07-29T09:06:09;2.55;;;1.20;;
26113;SDS011;13966;48.828;9.064;2023-07-29T09:08:35;0.88;;;0.80;;
26113;SDS011;13966;48.828;9.064;2023-07-29T09:11:01;1.23;;;0.93;;
26113;SDS011;13966;48.828;9.064;2023-07-29T09:13:27;2.25;;;1.00;;
26113;SDS011;13966;48.828;9.064;2023-07-29T09:15:54;2.97;;;0.90;;
26113;SDS011;13966;48.828;9.064;2023-07-29T09:18:23;1.67;;;0.90;;
26113;SDS011;13966;48.828;9.064;2023-07-29T09:20:51;1.50;;;1.20;;
26113;SDS011;13966;48.828;9.064;2023-07-29T09:23:17;2.20;;;0.90;;
26113;SDS011;13966;48.828;9.064;2023-07-29T09:25:43;1.00;;;0.90;;
26113;SDS011;13966;48.828;9.064;2023-07-29T09:28:12;3.83;;;0.82;;
26113;SDS011;13966;48.828;9.064;2023-07-29T09:30:39;1.15;;;0.70;;
26113;SDS011;13966;48.828;9.064;2023-07-29T09:33:05;1.80;;;1.02;;
26113;SDS011;13966;48.828;9.064;2023-07-29T09:35:32;1.20;;;0.88;;
26113;SDS011;13966;48.828;9.064;2023-07-29T09:37:59;1.02;;;0.93;;
26113;SDS011;13966;48.828;9.064;2023-07-29T09:40:25;1.35;;;1.00;;
26113;SDS011;13966;48.828;9.064;2023-07-29T09:42:51;1.40;;;1.10;;
26113;SDS011;13966;48.828;9.064;2023-07-29T09:45:24;1.75;;;1.00;;
26113;SDS011;13966;48.828;9.064;2023-07-29T09:47:52;2.40;;;1.15;;
26113;SDS011;13966;48.828;9.064;2023-07-29T09:50:18;2.55;;;1.00;;
26113;SDS011;13966;48.828;9.064;2023-07-29T09:52:44;1.35;;;1.05;;
26113;SDS011;13966;48.828;9.064;2023-07-29T09:55:11;1.60;;;1.20;;
26113;SDS011;13966;48.828;9.064;2023-07-29T09:57:38;4.10;;;1.23;;
26113;SDS011;13966;48.828;9.064;2023-07-29T10:00:05;2.55;;;0.90;;
26113;SDS011;13966;48.828;9.064;2023-07-29T10:02:36;1.42;;;1.00;;
26113;SDS011;13966;48.828;9.064;2023-07-29T10:05:02;2.10;;;1.00;;
26113;SDS011;13966;48.828;9.064;2023-07-29T10:07:28;2.65;;;1.20;;
26113;SDS011;13966;48.828;9.064;2023-07-29T10:09:55;1.17;;;0.90;;
26113;SDS011;13966;48.828;9.064;2023-07-29T10:12:21;1.00;;;0.90;;
26113;SDS011;13966;48.828;9.064;2023-07-29T10:14:48;1.58;;;0.90;;
26113;SDS011;13966;48.828;9.064;2023-07-29T10:17:15;0.70;;;0.68;;
26113;SDS011;13966;48.828;9.064;2023-07-29T10:19:41;1.52;;;0.80;;
26113;SDS011;13966;48.828;9.064;2023-07-29T10:22:07;1.70;;;0.98;;
26113;SDS011;13966;48.828;9.064;2023-07-29T10:24:34;0.60;;;0.60;;
26113;SDS011;13966;48.828;9.064;2023-07-29T10:27:03;0.82;;;0.70;;
26113;SDS011;13966;48.828;9.064;2023-07-29T10:29:31;1.10;;;0.88;;
26113;SDS011;13966;48.828;9.064;2023-07-29T10:31:58;0.80;;;0.63;;
26113;SDS011;13966;48.828;9.064;2023-07-29T10:34:27;1.63;;;0.90;;
26113;SDS011;13966;48.828;9.064;2023-07-29T10:36:53;1.02;;;0.88;;
26113;SDS011;13966;48.828;9.064;2023-07-29T10:39:19;1.38;;;0.90;;
26113;SDS011;13966;48.828;9.064;2023-07-29T10:41:58;1.75;;;1.05;;
26113;SDS011;13966;48.828;9.064;2023-07-29T10:47:24;4.30;;;0.90;;
26113;SDS011;13966;48.828;9.064;2023-07-29T10:49:53;2.15;;;0.82;;
26113;SDS011;13966;48.828;9.064;2023-07-29T10:52:29;1.63;;;0.90;;
26113;SDS011;13966;48.828;9.064;2023-07-29T10:54:56;0.80;;;0.80;;
26113;SDS011;13966;48.828;9.064;2023-07-29T10:57:36;2.03;;;0.98;;
26113;SDS011;13966;48.828;9.064;2023-07-29T11:00:03;1.27;;;1.10;;
26113;SDS011;13966;48.828;9.064;2023-07-29T11:02:36;1.30;;;1.10;;
26113;SDS011;13966;48.828;9.064;2023-07-29T11:05:06;1.00;;;0.90;;
26113;SDS011;13966;48.828;9.064;2023-07-29T11:07:42;1.43;;;0.97;;
26113;SDS011;13966;48.828;9.064;2023-07-29T11:10:08;0.98;;;0.80;;
26113;SDS011;13966;48.828;9.064;2023-07-29T11:12:42;2.40;;;0.90;;
26113;SDS011;13966;48.828;9.064;2023-07-29T11:17:43;2.80;;;0.90;;
26113;SDS011;13966;48.828;9.064;2023-07-29T11:20:10;1.67;;;1.13;;
26113;SDS011;13966;48.828;9.064;2023-07-29T11:22:37;1.05;;;0.60;;
26113;SDS011;13966;48.828;9.064;2023-07-29T11:25:03;0.80;;;0.73;;
26113;SDS011;13966;48.828;9.064;2023-07-29T11:27:30;3.08;;;0.90;;
26113;SDS011;13966;48.828;9.064;2023-07-29T11:29:57;1.25;;;0.80;;
26113;SDS011;13966;48.828;9.064;2023-07-29T11:32:23;4.32;;;0.80;;
26113;SDS011;13966;48.828;9.064;2023-07-29T11:34:50;1.13;;;0.77;;
26113;SDS011;13966;48.828;9.064;2023-07-29T11:37:16;3.17;;;1.10;;
26113;SDS011;13966;48.828;9.064;2023-07-29T11:39:42;1.05;;;0.70;;
26113;SDS011;13966;48.828;9.064;2023-07-29T11:42:12;2.65;;;1.08;;
26113;SDS011;13966;48.828;9.064;2023-07-29T11:44:38;6.88;;;1.17;;
26113;SDS011;13966;48.828;9.064;2023-07-29T11:47:11;0.70;;;0.70;;
26113;SDS011;13966;48.828;9.064;2023-07-29T11:49:40;0.82;;;0.82;;
26113;SDS011;13966;48.828;9.064;2023-07-29T11:52:07;1.23;;;0.98;;
26113;SDS011;13966;48.828;9.064;2023-07-29T11:54:35;1.00;;;0.70;;
26113;SDS011;13966;48.828;9.064;2023-07-29T11:57:02;2.30;;;0.90;;
26113;SDS011;13966;48.828;9.064;2023-07-29T11:59:29;0.88;;;0.75;;
26113;SDS011;13966;48.828;9.064;2023-07-29T12:01:55;0.98;;;0.90;;
26113;SDS011;13966;48.828;9.064;2023-07-29T12:04:21;0.75;;;0.75;;
26113;SDS011;13966;48.828;9.064;2023-07-29T12:06:47;2.75;;;0.93;;
26113;SDS011;13966;48.828;9.064;2023-07-29T12:09:13;0.73;;;0.73;;
26113;SDS011;13966;48.828;9.064;2023-07-29T12:11:39;2.65;;;1.08;;
26113;SDS011;13966;48.828;9.064;2023-07-29T12:14:08;1.25;;;1.15;;
26113;SDS011;13966;48.828;9.064;2023-07-29T12:16:43;1.75;;;1.10;;
26113;SDS011;13966;48.828;9.064;2023-07-29T12:19:12;2.60;;;1.10;;
26113;SDS011;13966;48.828;9.064;2023-07-29T12:21:40;2.67;;;0.90;;
26113;SDS011;13966;48.828;9.064;2023-07-29T12:24:07;1.35;;;1.05;;
26113;SDS011;13966;48.828;9.064;2023-07-29T12:26:33;2.08;;;0.95;;
26113;SDS011;13966;48.828;9.064;2023-07-29T12:29:10;1.10;;;1.00;;
26113;SDS011;13966;48.828;9.064;2023-07-29T12:31:37;2.78;;;1.00;;
26113;SDS011;13966;48.828;9.064;2023-07-29T12:34:03;2.53;;;1.10;;
26113;SDS011;13966;48.828;9.064;2023-07-29T12:36:45;1.30;;;1.20;;
26113;SDS011;13966;48.828;9.064;2023-07-29T12:39:17;3.55;;;1.13;;
26113;SDS011;13966;48.828;9.064;2023-07-29T12:41:44;1.08;;;0.98;;
26113;SDS011;13966;48.828;9.064;2023-07-29T12:44:10;1.20;;;1.10;;
26113;SDS011;13966;48.828;9.064;2023-07-29T12:46:36;1.55;;;1.00;;
26113;SDS011;13966;48.828;9.064;2023-07-29T12:49:01;1.08;;;0.90;;
26113;SDS011;13966;48.828;9.064;2023-07-29T12:51:27;1.13;;;1.02;;
26113;SDS011;13966;48.828;9.064;2023-07-29T12:53:53;1.05;;;0.90;;
26113;SDS011;13966;48.828;9.064;2023-07-29T12:56:20;1.75;;;1.05;;
26113;SDS011;13966;48.828;9.064;2023-07-29T12:58:45;1.48;;;0.95;;
26113;SDS011;13966;48.828;9.064;2023-07-29T13:01:11;0.90;;;0.90;;
26113;SDS011;13966;48.828;9.064;2023-07-29T13:03:44;1.40;;;1.10;;
26113;SDS011;13966;48.828;9.064;2023-07-29T13:06:10;3.25;;;0.95;;
26113;SDS011;13966;48.828;9.064;2023-07-29T13:08:36;1.33;;;1.10;;
26113;SDS011;13966;48.828;9.064;2023-07-29T13:11:03;1.00;;;0.90;;
26113;SDS011;13966;48.828;9.064;2023-07-29T13:13:29;2.40;;;0.95;;
26113;SDS011;13966;48.828;9.064;2023-07-29T13:15:55;1.10;;;1.00;;
26113;SDS011;13966;48.828;9.064;2023-07-29T13:18:21;2.03;;;1.02;;
26113;SDS011;13966;48.828;9.064;2023-07-29T13:20:47;1.17;;;1.00;;
26113;SDS011;13966;48.828;9.064;2023-07-29T13:23:13;0.90;;;0.90;;
26113;SDS011;13966;48.828;9.064;2023-07-29T13:25:39;1.20;;;1.05;;
26113;SDS011;13966;48.828;9.064;2023-07-29T13:28:05;1.77;;;1.00;;
26113;SDS011;13966;48.828;9.064;2023-07-29T13:30:32;2.47;;;0.98;;
26113;SDS011;13966;48.828;9.064;2023-07-29T13:32:58;2.03;;;1.08;;
26113;SDS011;13966;48.828;9.064;2023-07-29T13:35:24;1.55;;;1.10;;
26113;SDS011;13966;48.828;9.064;2023-07-29T13:37:50;1.17;;;1.00;;
26113;SDS011;13966;48.828;9.064;2023-07-29T13:40:16;1.83;;;1.23;;
26113;SDS011;13966;48.828;9.064;2023-07-29T13:42:42;1.40;;;0.95;;
26113;SDS011;13966;48.828;9.064;2023-07-29T13:45:08;1.17;;;0.98;;
26113;SDS011;13966;48.828;9.064;2023-07-29T13:47:34;1.65;;;1.35;;
26113;SDS011;13966;48.828;9.064;2023-07-29T13:50:00;2.08;;;0.93;;
26113;SDS011;13966;48.828;9.064;2023-07-29T13:52:26;1.60;;;1.20;;
26113;SDS011;13966;48.828;9.064;2023-07-29T13:54:52;1.38;;;1.02;;
26113;SDS011;13966;48.828;9.064;2023-07-29T13:57:18;1.83;;;1.17;;
26113;SDS011;13966;48.828;9.064;2023-07-29T13:59:44;1.73;;;1.30;;
26113;SDS011;13966;48.828;9.064;2023-07-29T14:02:10;1.63;;;1.20;;
26113;SDS011;13966;48.828;9.064;2023-07-29T14:04:36;2.70;;;1.00;;
26113;SDS011;13966;48.828;9.064;2023-07-29T14:07:02;3.97;;;1.10;;
26113;SDS011;13966;48.828;9.064;2023-07-29T14:09:28;1.23;;;1.02;;
26113;SDS011;13966;48.828;9.064;2023-07-29T14:11:54;1.00;;;1.00;;
26113;SDS011;13966;48.828;9.064;2023-07-29T14:14:20;0.73;;;0.73;;
26113;SDS011;13966;48.828;9.064;2023-07-29T14:16:46;2.05;;;0.90;;
26113;SDS011;13966;48.828;9.064;2023-07-29T14:19:12;4.72;;;1.30;;
26113;SDS011;13966;48.828;9.064;2023-07-29T14:21:38;1.10;;;1.00;;
26113;SDS011;13966;48.828;9.064;2023-07-29T14:24:05;1.23;;;0.90;;
26113;SDS011;13966;48.828;9.064;2023-07-29T14:26:31;0.80;;;0.80;;
26113;SDS011;13966;48.828;9.064;2023-07-29T14:28:57;0.98;;;0.90;;
26113;SDS011;13966;48.828;9.064;2023-07-29T14:31:23;1.30;;;1.20;;
26113;SDS011;13966;48.828;9.064;2023-07-29T14:33:49;1.27;;;1.10;;
26113;SDS011;13966;48.828;9.064;2023-07-29T14:36:15;1.73;;;1.20;;
26113;SDS011;13966;48.828;9.064;2023-07-29T14:38:41;3.55;;;1.13;;
26113;SDS011;13966;48.828;9.064;2023-07-29T14:41:07;2.80;;;1.10;;
26113;SDS011;13966;48.828;9.064;2023-07-29T14:43:34;2.65;;;1.20;;
26113;SDS011;13966;48.828;9.064;2023-07-29T14:46:00;2.22;;;1.20;;
26113;SDS011;13966;48.828;9.064;2023-07-29T14:48:26;1.55;;;1.23;;
26113;SDS011;13966;48.828;9.064;2023-07-29T14:50:52;1.30;;;1.20;;
26113;SDS011;13966;48.828;9.064;2023-07-29T14:53:18;1.98;;;1.10;;
26113;SDS011;13966;48.828;9.064;2023-07-29T14:55:44;1.77;;;1.25;;
26113;SDS011;13966;48.828;9.064;2023-07-29T14:58:10;1.88;;;1.20;;